KCTY

Cross City Airport

Cross City, Florida, USA
METAR KCTY 192255Z AUTO 25009KT 10SM SCT036 30/24 A3002 RMK AO2 LTG DSNT SE T03000236
Observed Flight Rules
Aug-19 @ 22:55 UTC (12 minutes ago) Visual Flight Rules
Wind Visibility Clouds
250° at 9 knots 10 miles
  • Scattered at 3,600' AGL
Temperatures Readings
Current 30°C / 86°F
Dewpoint 24°C / 75°F
Humidity 70%
Altimeter 30.02" Hg
Pressure 1017 hPa
Elevation 13
METAR KCTY 192255Z AUTO 25009KT 10SM SCT036 30/24 A3002 RMK AO2 LTG DSNT SE T03000236
Observed Flight Rules
Aug-19 @ 22:55 UTC
(12 minutes ago)
VFR
Wind Visibility
250° at 9 knots 10 miles
Clouds
  • Scattered at 3,600' AGL
Temperature Dewpoint
30°C / 86°F 24°C / 75°F
Humidity Altimeter Pressure
70% 30.02" Hg 1017 hPa